Time;durP1;ratioP1;P1;durP2;ratioP2;P2;SDS_P1;SDS_P2;PMS_P1;PMS_P2;Temp;Humidity;BMP_temperature;BMP_pressure;BME280_temperature;BME280_humidity;BME280_pressure;Samples;Min_cycle;Max_cycle;Signal;HPM_P1;HPM_P2
2021/01/16 00:01:18;;;;;;;24.00;10.70;;;;;;;;;;5028428;28;20029;-65
2021/01/16 00:03:43;;;;;;;23.13;10.25;;;;;;;;;;5028293;28;20091;-64
2021/01/16 00:06:08;;;;;;;23.45;11.25;;;;;;;;;;5028381;28;20029;-65
2021/01/16 00:08:33;;;;;;;21.17;11.80;;;;;;;;;;5028860;28;20017;-66
2021/01/16 00:10:59;;;;;;;23.98;11.05;;;;;;;;;;5027872;28;20375;-65
2021/01/16 00:13:28;;;;;;;28.98;12.18;;;;;;;;;;5029110;28;20228;-65
2021/01/16 00:15:53;;;;;;;24.63;10.93;;;;;;;;;;5030738;28;20034;-67
2021/01/16 00:18:19;;;;;;;25.27;11.20;;;;;;;;;;5030428;28;20091;-65
2021/01/16 00:20:47;;;;;;;24.90;11.40;;;;;;;;;;5028166;28;20367;-66
2021/01/16 00:23:13;;;;;;;23.20;11.13;;;;;;;;;;5038160;23;20043;-65
2021/01/16 00:25:38;;;;;;;23.55;10.52;;;;;;;;;;5080652;28;20469;-65
2021/01/16 00:28:04;;;;;;;28.52;11.70;;;;;;;;;;5073307;28;20535;-65
2021/01/16 00:30:31;;;;;;;26.70;12.20;;;;;;;;;;5071633;28;20078;-66
2021/01/16 00:32:56;;;;;;;24.00;10.57;;;;;;;;;;5072226;28;20020;-65
2021/01/16 00:35:22;;;;;;;27.10;11.73;;;;;;;;;;5065937;28;20024;-65
2021/01/16 00:37:48;;;;;;;33.03;11.85;;;;;;;;;;5067053;28;20052;-66
2021/01/16 00:40:16;;;;;;;28.70;11.80;;;;;;;;;;5066276;28;20486;-66
2021/01/16 00:42:42;;;;;;;27.73;11.20;;;;;;;;;;5068076;28;20389;-66
2021/01/16 00:45:08;;;;;;;26.67;11.98;;;;;;;;;;5067318;28;20013;-65
2021/01/16 00:47:34;;;;;;;25.38;11.35;;;;;;;;;;5068575;28;20028;-65
2021/01/16 00:49:59;;;;;;;26.55;12.13;;;;;;;;;;5065896;28;20087;-65
2021/01/16 00:52:24;;;;;;;30.42;13.82;;;;;;;;;;5066421;28;20052;-66
2021/01/16 00:54:50;;;;;;;36.38;12.80;;;;;;;;;;5066538;28;20029;-65
2021/01/16 00:57:15;;;;;;;24.70;10.63;;;;;;;;;;5067202;28;20044;-65
2021/01/16 00:59:40;;;;;;;25.20;11.90;;;;;;;;;;5067494;28;20024;-65
2021/01/16 01:02:05;;;;;;;29.15;12.65;;;;;;;;;;5068051;28;20085;-66
2021/01/16 01:04:30;;;;;;;27.33;11.27;;;;;;;;;;5068284;28;20016;-64
2021/01/16 01:06:55;;;;;;;24.70;12.50;;;;;;;;;;5067500;28;20073;-66
2021/01/16 01:09:21;;;;;;;23.65;10.82;;;;;;;;;;5067408;28;20028;-64
2021/01/16 01:11:46;;;;;;;30.00;11.77;;;;;;;;;;5068244;28;20226;-66
2021/01/16 01:14:11;;;;;;;25.55;11.57;;;;;;;;;;5067420;28;20029;-66
2021/01/16 01:16:36;;;;;;;28.80;12.18;;;;;;;;;;5066773;28;20404;-65
2021/01/16 01:19:01;;;;;;;28.48;12.52;;;;;;;;;;5066660;28;20024;-66
2021/01/16 01:21:27;;;;;;;24.85;12.07;;;;;;;;;;5066590;28;20036;-64
2021/01/16 01:23:52;;;;;;;25.05;12.05;;;;;;;;;;5066159;28;20859;-64
2021/01/16 01:26:17;;;;;;;28.33;12.10;;;;;;;;;;5066345;28;20020;-64
2021/01/16 01:28:42;;;;;;;27.33;11.85;;;;;;;;;;5066033;28;20025;-64
2021/01/16 01:31:08;;;;;;;25.65;11.90;;;;;;;;;;5066209;28;20472;-64
2021/01/16 01:33:33;;;;;;;28.80;12.80;;;;;;;;;;5066490;28;20446;-64
2021/01/16 01:35:58;;;;;;;26.60;12.38;;;;;;;;;;5066082;28;20033;-64
2021/01/16 01:38:23;;;;;;;27.30;11.90;;;;;;;;;;5066490;28;20412;-65
2021/01/16 01:40:48;;;;;;;25.73;11.82;;;;;;;;;;5065711;28;20723;-65
2021/01/16 01:43:14;;;;;;;27.30;12.18;;;;;;;;;;5066851;28;20067;-64
2021/01/16 01:45:40;;;;;;;25.48;12.18;;;;;;;;;;5066757;28;20032;-64
2021/01/16 01:48:05;;;;;;;26.25;11.27;;;;;;;;;;5067401;28;20017;-65
2021/01/16 01:50:30;;;;;;;28.80;10.98;;;;;;;;;;5067017;28;20100;-65
2021/01/16 01:52:56;;;;;;;28.02;11.35;;;;;;;;;;5066583;28;20066;-64
2021/01/16 01:55:22;;;;;;;22.88;10.82;;;;;;;;;;5067693;28;20025;-65
2021/01/16 01:57:50;;;;;;;27.20;11.68;;;;;;;;;;5065669;28;20147;-64
2021/01/16 02:00:15;;;;;;;24.05;10.80;;;;;;;;;;5066169;28;20107;-65
2021/01/16 02:02:42;;;;;;;24.98;11.80;;;;;;;;;;5066621;28;20108;-66
2021/01/16 02:05:07;;;;;;;28.25;11.75;;;;;;;;;;5064698;28;20392;-66
2021/01/16 02:07:39;;;;;;;28.30;11.50;;;;;;;;;;5066117;28;20027;-66
2021/01/16 02:10:12;;;;;;;26.00;11.02;;;;;;;;;;5064339;28;20116;-65
2021/01/16 02:12:38;;;;;;;24.65;10.93;;;;;;;;;;5066146;28;20485;-65
2021/01/16 02:15:30;;;;;;;26.60;11.00;;;;;;;;;;5065629;28;20017;-66
2021/01/16 02:17:57;;;;;;;25.63;10.88;;;;;;;;;;5062972;28;20040;-64
2021/01/16 02:20:27;;;;;;;26.42;11.20;;;;;;;;;;5065223;28;20042;-65
2021/01/16 02:23:10;;;;;;;24.55;11.55;;;;;;;;;;5066840;28;20420;-65
2021/01/16 02:25:38;;;;;;;25.25;10.77;;;;;;;;;;5066029;28;20039;-65
2021/01/16 02:28:05;;;;;;;29.73;11.88;;;;;;;;;;5067401;28;20027;-65
2021/01/16 02:30:33;;;;;;;24.77;11.48;;;;;;;;;;5065717;28;20052;-65
2021/01/16 02:32:58;;;;;;;24.10;11.48;;;;;;;;;;5066557;28;20031;-65
2021/01/16 02:35:24;;;;;;;24.08;11.00;;;;;;;;;;5065069;28;20476;-64
2021/01/16 02:37:53;;;;;;;28.75;10.95;;;;;;;;;;5066324;28;20047;-64
2021/01/16 02:40:30;;;;;;;23.05;12.15;;;;;;;;;;5065696;28;20381;-64
2021/01/16 02:42:55;;;;;;;22.20;11.55;;;;;;;;;;5065293;28;20024;-64
2021/01/16 02:45:24;;;;;;;22.65;10.95;;;;;;;;;;5064466;28;20058;-64
2021/01/16 02:47:55;;;;;;;24.15;10.07;;;;;;;;;;5065367;28;20263;-65
2021/01/16 02:50:21;;;;;;;28.20;10.77;;;;;;;;;;5064536;28;20407;-64
2021/01/16 02:52:47;;;;;;;24.58;11.20;;;;;;;;;;5065149;28;20071;-64
2021/01/16 02:55:13;;;;;;;22.70;11.13;;;;;;;;;;5066776;28;20350;-64
2021/01/16 02:57:38;;;;;;;24.17;11.80;;;;;;;;;;5069864;28;20135;-64
2021/01/16 03:00:06;;;;;;;30.10;11.07;;;;;;;;;;5069316;28;20028;-64
2021/01/16 03:02:31;;;;;;;23.23;11.20;;;;;;;;;;5068751;28;20028;-64
2021/01/16 03:04:56;;;;;;;22.35;10.75;;;;;;;;;;5070040;28;20021;-64
2021/01/16 03:07:22;;;;;;;27.02;12.25;;;;;;;;;;5069750;28;20009;-64
2021/01/16 03:09:47;;;;;;;24.42;10.57;;;;;;;;;;5068131;28;20104;-64
2021/01/16 03:12:12;;;;;;;27.13;10.90;;;;;;;;;;5069530;28;20115;-64
2021/01/16 03:14:40;;;;;;;28.05;12.20;;;;;;;;;;5068685;28;20432;-64
2021/01/16 03:17:05;;;;;;;28.17;10.60;;;;;;;;;;5069191;28;20020;-64
2021/01/16 03:19:32;;;;;;;24.40;11.60;;;;;;;;;;5067618;28;20494;-65
2021/01/16 03:21:57;;;;;;;28.25;11.68;;;;;;;;;;5069063;28;20016;-65
2021/01/16 03:24:22;;;;;;;26.60;11.43;;;;;;;;;;5069691;28;20036;-66
2021/01/16 03:26:47;;;;;;;25.13;10.40;;;;;;;;;;5069431;28;20056;-66
2021/01/16 03:29:12;;;;;;;24.10;11.52;;;;;;;;;;5069986;28;20025;-64
2021/01/16 03:31:38;;;;;;;29.75;12.25;;;;;;;;;;5068833;28;20026;-67
2021/01/16 03:34:03;;;;;;;27.13;11.38;;;;;;;;;;5070079;28;20012;-65
2021/01/16 03:36:28;;;;;;;30.70;11.65;;;;;;;;;;5069110;28;20078;-66
2021/01/16 03:38:53;;;;;;;25.63;11.50;;;;;;;;;;5068402;28;20093;-64
2021/01/16 03:41:18;;;;;;;27.35;11.73;;;;;;;;;;5068582;28;20017;-65
2021/01/16 03:43:43;;;;;;;25.83;11.80;;;;;;;;;;5069405;28;20020;-64
2021/01/16 03:46:09;;;;;;;29.33;12.40;;;;;;;;;;5068864;28;20016;-66
2021/01/16 03:48:35;;;;;;;25.25;11.65;;;;;;;;;;5068451;28;20451;-63
2021/01/16 03:51:00;;;;;;;28.02;12.02;;;;;;;;;;5069283;28;20483;-65
2021/01/16 03:53:25;;;;;;;28.98;11.95;;;;;;;;;;5068463;28;20020;-64
2021/01/16 03:55:50;;;;;;;29.35;12.27;;;;;;;;;;5068933;28;20028;-64
2021/01/16 03:58:15;;;;;;;32.55;12.02;;;;;;;;;;5069004;28;20105;-65
2021/01/16 04:00:41;;;;;;;34.75;11.57;;;;;;;;;;5068804;28;20569;-65
2021/01/16 04:03:06;;;;;;;31.80;12.88;;;;;;;;;;5068760;28;20028;-65
2021/01/16 04:05:31;;;;;;;27.75;11.23;;;;;;;;;;5067284;28;20012;-64
2021/01/16 04:07:56;;;;;;;27.13;11.25;;;;;;;;;;5068146;28;20032;-64
2021/01/16 04:10:21;;;;;;;27.58;12.55;;;;;;;;;;5068047;28;20043;-64
2021/01/16 04:12:46;;;;;;;27.17;12.48;;;;;;;;;;5067478;28;20041;-64
2021/01/16 04:15:12;;;;;;;30.17;12.60;;;;;;;;;;5067705;28;20023;-64
2021/01/16 04:17:37;;;;;;;29.75;11.35;;;;;;;;;;5067659;28;20017;-64
2021/01/16 04:20:03;;;;;;;26.30;12.65;;;;;;;;;;5067605;28;20056;-65
2021/01/16 04:22:28;;;;;;;26.10;12.48;;;;;;;;;;5068352;28;20025;-64
2021/01/16 04:24:54;;;;;;;28.10;11.95;;;;;;;;;;5068180;28;20495;-66
2021/01/16 04:27:19;;;;;;;23.52;11.52;;;;;;;;;;5068345;28;20090;-65
2021/01/16 04:29:44;;;;;;;28.48;12.40;;;;;;;;;;5067999;28;20024;-64
2021/01/16 04:32:09;;;;;;;26.77;11.73;;;;;;;;;;5068046;28;20056;-64
2021/01/16 04:34:35;;;;;;;32.72;12.50;;;;;;;;;;5068041;28;20024;-65
2021/01/16 04:37:00;;;;;;;26.80;11.98;;;;;;;;;;5068276;28;20502;-63
2021/01/16 04:39:25;;;;;;;22.65;11.18;;;;;;;;;;5067459;28;20020;-68
2021/01/16 04:41:51;;;;;;;29.27;11.93;;;;;;;;;;5067527;28;20012;-64
2021/01/16 04:44:19;;;;;;;32.17;11.60;;;;;;;;;;5067217;28;20016;-66
2021/01/16 04:46:45;;;;;;;29.33;12.48;;;;;;;;;;5068745;28;20035;-65
2021/01/16 04:49:10;;;;;;;23.88;9.38;;;;;;;;;;5066164;28;20028;-66
2021/01/16 04:51:43;;;;;;;25.83;10.40;;;;;;;;;;5067441;28;20017;-64
2021/01/16 04:54:12;;;;;;;26.67;11.07;;;;;;;;;;5067334;28;20027;-64
2021/01/16 04:56:39;;;;;;;20.52;9.65;;;;;;;;;;5067414;28;20412;-65
2021/01/16 04:59:04;;;;;;;33.13;13.20;;;;;;;;;;5068379;28;21478;-64
2021/01/16 05:01:30;;;;;;;29.60;10.90;;;;;;;;;;5067200;28;20389;-66
2021/01/16 05:03:56;;;;;;;32.08;11.57;;;;;;;;;;5067082;28;20082;-67
2021/01/16 05:06:23;;;;;;;29.63;11.38;;;;;;;;;;5067675;28;20048;-64
2021/01/16 05:08:48;;;;;;;28.08;11.25;;;;;;;;;;5066729;28;20481;-65
2021/01/16 05:11:22;;;;;;;35.50;12.63;;;;;;;;;;5064894;28;20146;-65
2021/01/16 05:13:53;;;;;;;29.65;12.68;;;;;;;;;;5064611;28;20556;-64
2021/01/16 05:16:24;;;;;;;31.33;12.82;;;;;;;;;;5063967;28;20456;-64
2021/01/16 05:18:49;;;;;;;;;;;;;;;;;;5064863;28;20056;-64
2021/01/16 05:21:14;;;;;;;27.83;12.23;;;;;;;;;;5064054;28;19971;-64
2021/01/16 05:23:43;;;;;;;33.97;13.70;;;;;;;;;;5064569;28;20775;-65
2021/01/16 05:26:09;;;;;;;29.65;12.27;;;;;;;;;;5065139;28;20107;-65
2021/01/16 05:28:34;;;;;;;22.10;10.48;;;;;;;;;;5064019;28;20108;-65
2021/01/16 05:31:00;;;;;;;30.02;12.38;;;;;;;;;;5064872;28;20099;-65
2021/01/16 05:33:26;;;;;;;32.40;13.13;;;;;;;;;;5064312;28;20035;-65
2021/01/16 05:35:52;;;;;;;23.17;11.25;;;;;;;;;;5065795;28;20028;-65
2021/01/16 05:38:22;;;;;;;27.55;12.75;;;;;;;;;;5064868;28;20024;-65
2021/01/16 05:40:47;;;;;;;24.70;11.82;;;;;;;;;;5064872;28;20029;-64
2021/01/16 05:43:12;;;;;;;28.52;12.75;;;;;;;;;;5064948;28;20109;-66
2021/01/16 05:45:39;;;;;;;24.17;11.88;;;;;;;;;;5065441;28;20017;-65
2021/01/16 05:48:05;;;;;;;28.30;12.75;;;;;;;;;;5066194;28;20070;-64
2021/01/16 05:50:33;;;;;;;29.25;11.88;;;;;;;;;;5066060;28;20028;-66
2021/01/16 05:52:58;;;;;;;23.63;10.35;;;;;;;;;;5066007;28;20012;-65
2021/01/16 05:55:23;;;;;;;28.73;11.25;;;;;;;;;;5064923;28;20012;-66
2021/01/16 05:57:49;;;;;;;26.20;12.18;;;;;;;;;;5064084;28;20020;-66
2021/01/16 06:00:24;;;;;;;29.70;11.75;;;;;;;;;;5063088;28;20384;-64
2021/01/16 06:02:50;;;;;;;21.67;9.45;;;;;;;;;;5068652;28;20020;-66
2021/01/16 06:05:15;;;;;;;34.13;12.55;;;;;;;;;;5067374;28;20441;-65
2021/01/16 06:07:41;;;;;;;27.60;12.43;;;;;;;;;;5065805;28;20023;-66
2021/01/16 06:10:11;;;;;;;29.38;11.77;;;;;;;;;;5065307;28;20033;-64
2021/01/16 06:12:37;;;;;;;23.30;9.65;;;;;;;;;;5066080;28;20121;-65
2021/01/16 06:15:12;;;;;;;29.63;10.85;;;;;;;;;;5065431;28;20059;-64
2021/01/16 06:17:38;;;;;;;27.30;8.73;;;;;;;;;;5065551;28;20659;-65
2021/01/16 06:20:06;;;;;;;24.02;8.65;;;;;;;;;;5064815;28;20064;-65
2021/01/16 06:22:32;;;;;;;27.98;9.77;;;;;;;;;;5064591;28;20473;-65
2021/01/16 06:24:58;;;;;;;12.50;6.65;;;;;;;;;;5065330;28;20028;-65
2021/01/16 06:27:25;;;;;;;31.42;11.48;;;;;;;;;;5064832;28;20112;-66
2021/01/16 06:30:12;;;;;;;34.35;13.15;;;;;;;;;;5065600;28;20028;-65
2021/01/16 06:32:44;;;;;;;31.00;13.48;;;;;;;;;;5065009;28;20036;-66
2021/01/16 06:35:10;;;;;;;28.75;12.20;;;;;;;;;;5064575;28;20024;-65
2021/01/16 06:37:49;;;;;;;23.25;8.18;;;;;;;;;;5064520;28;20028;-65
2021/01/16 06:40:27;;;;;;;31.08;12.00;;;;;;;;;;5065223;28;20544;-66
2021/01/16 06:42:52;;;;;;;26.10;10.30;;;;;;;;;;5065030;28;20421;-65
2021/01/16 06:45:21;;;;;;;33.67;13.75;;;;;;;;;;5064146;28;20124;-64
2021/01/16 06:47:46;;;;;;;31.52;14.45;;;;;;;;;;5063700;28;20368;-65
2021/01/16 06:50:13;;;;;;;26.92;9.45;;;;;;;;;;5065567;28;20028;-65
2021/01/16 06:52:40;;;;;;;33.70;12.93;;;;;;;;;;5064642;28;20032;-66
2021/01/16 06:55:06;;;;;;;29.58;12.07;;;;;;;;;;5065434;28;20024;-66
2021/01/16 06:57:34;;;;;;;26.77;12.50;;;;;;;;;;5065790;28;20362;-66
2021/01/16 07:00:00;;;;;;;32.85;13.68;;;;;;;;;;5065936;28;20031;-66
2021/01/16 07:02:26;;;;;;;31.95;12.75;;;;;;;;;;5065158;28;20032;-66
2021/01/16 07:04:52;;;;;;;29.70;13.40;;;;;;;;;;5064520;28;20024;-64
2021/01/16 07:07:19;;;;;;;35.63;13.00;;;;;;;;;;5065515;28;20346;-65
2021/01/16 07:09:45;;;;;;;29.67;12.35;;;;;;;;;;5064252;28;20027;-65
2021/01/16 07:12:12;;;;;;;29.55;13.48;;;;;;;;;;5065098;28;20028;-66
2021/01/16 07:14:39;;;;;;;29.50;12.75;;;;;;;;;;5063881;28;20385;-66
2021/01/16 07:17:05;;;;;;;35.83;13.95;;;;;;;;;;5065173;28;20039;-65
2021/01/16 07:19:30;;;;;;;27.00;11.43;;;;;;;;;;5064451;28;20029;-65
2021/01/16 07:21:56;;;;;;;5.05;2.72;;;;;;;;;;5064796;28;20073;-66
2021/01/16 07:24:21;;;;;;;31.17;12.07;;;;;;;;;;5064722;28;20085;-65
2021/01/16 07:26:50;;;;;;;30.17;13.30;;;;;;;;;;5065063;28;20473;-65
2021/01/16 07:29:15;;;;;;;33.28;12.75;;;;;;;;;;5064319;28;20032;-66
2021/01/16 07:31:42;;;;;;;25.98;12.00;;;;;;;;;;5063997;28;20396;-66
2021/01/16 07:34:08;;;;;;;30.88;13.20;;;;;;;;;;5064692;28;20127;-65
2021/01/16 07:36:34;;;;;;;29.10;11.85;;;;;;;;;;5065031;28;20124;-64
2021/01/16 07:39:06;;;;;;;33.03;13.20;;;;;;;;;;5064411;28;20111;-65
2021/01/16 07:41:33;;;;;;;31.10;12.43;;;;;;;;;;5063092;28;20032;-65
2021/01/16 07:43:59;;;;;;;36.67;11.07;;;;;;;;;;5066600;28;20103;-66
2021/01/16 07:46:28;;;;;;;30.55;13.48;;;;;;;;;;5065565;28;20024;-64
2021/01/16 07:48:57;;;;;;;25.52;10.73;;;;;;;;;;5065583;28;20286;-65
2021/01/16 07:51:26;;;;;;;35.75;12.52;;;;;;;;;;5064912;28;20056;-65
2021/01/16 07:53:54;;;;;;;22.80;10.48;;;;;;;;;;5065741;28;20115;-63
2021/01/16 07:56:21;;;;;;;23.60;11.25;;;;;;;;;;5066443;28;20032;-65
2021/01/16 07:58:52;;;;;;;28.63;12.43;;;;;;;;;;5065911;28;20376;-64
2021/01/16 08:01:29;;;;;;;34.85;12.80;;;;;;;;;;5067129;28;20047;-65
2021/01/16 08:04:03;;;;;;;24.98;10.68;;;;;;;;;;5067454;28;20020;-63
2021/01/16 08:06:31;;;;;;;32.88;12.77;;;;;;;;;;5067679;28;20078;-64
2021/01/16 08:09:03;;;;;;;27.92;11.50;;;;;;;;;;5067449;28;20016;-66
2021/01/16 08:11:32;;;;;;;31.33;12.73;;;;;;;;;;5066306;28;20028;-66
2021/01/16 08:13:58;;;;;;;26.40;9.23;;;;;;;;;;5067695;28;20479;-65
2021/01/16 08:16:24;;;;;;;29.55;11.05;;;;;;;;;;5067632;28;20013;-65
2021/01/16 08:18:53;;;;;;;19.80;8.45;;;;;;;;;;5067710;28;20093;-65
2021/01/16 08:21:20;;;;;;;21.30;8.15;;;;;;;;;;5067581;28;20020;-65
2021/01/16 08:23:47;;;;;;;21.13;9.52;;;;;;;;;;5067004;28;20023;-65
2021/01/16 08:26:12;;;;;;;30.77;11.82;;;;;;;;;;5065782;28;20094;-64
2021/01/16 08:28:37;;;;;;;32.42;10.93;;;;;;;;;;5066605;28;20496;-66
2021/01/16 08:31:02;;;;;;;28.23;11.75;;;;;;;;;;5066663;28;20024;-66
2021/01/16 08:33:32;;;;;;;40.33;15.43;;;;;;;;;;5067192;28;20062;-65
2021/01/16 08:35:57;;;;;;;27.63;10.50;;;;;;;;;;5066493;28;20021;-65
2021/01/16 08:38:23;;;;;;;21.17;9.07;;;;;;;;;;5067705;28;20020;-65
2021/01/16 08:41:05;;;;;;;33.28;13.57;;;;;;;;;;5067202;28;20059;-65
2021/01/16 08:43:32;;;;;;;39.60;16.83;;;;;;;;;;5065806;28;20054;-65
2021/01/16 08:46:08;;;;;;;41.42;14.93;;;;;;;;;;5066042;28;20521;-62
2021/01/16 08:48:33;;;;;;;33.58;13.85;;;;;;;;;;5066710;28;20029;-65
2021/01/16 08:50:58;;;;;;;36.78;12.48;;;;;;;;;;5067134;28;20028;-63
2021/01/16 08:53:23;;;;;;;25.73;12.05;;;;;;;;;;5066639;28;20031;-65
2021/01/16 08:55:48;;;;;;;44.88;17.00;;;;;;;;;;5066579;28;20138;-64
2021/01/16 08:58:14;;;;;;;38.38;15.98;;;;;;;;;;5066754;28;20023;-65
2021/01/16 09:00:40;;;;;;;40.45;17.80;;;;;;;;;;5066590;28;20043;-65
2021/01/16 09:03:08;;;;;;;26.90;12.00;;;;;;;;;;5065682;28;20507;-64
2021/01/16 09:05:34;;;;;;;35.83;13.98;;;;;;;;;;5065895;28;20012;-66
2021/01/16 09:08:00;;;;;;;26.85;11.02;;;;;;;;;;5068186;28;20368;-65
2021/01/16 09:10:26;;;;;;;32.00;13.48;;;;;;;;;;5066515;28;20032;-64
2021/01/16 09:12:51;;;;;;;32.90;12.70;;;;;;;;;;5066449;28;20064;-64
2021/01/16 09:15:19;;;;;;;41.88;16.73;;;;;;;;;;5065029;28;20257;-65
2021/01/16 09:17:59;;;;;;;34.20;13.90;;;;;;;;;;5065875;28;20477;-64
2021/01/16 09:20:24;;;;;;;40.13;17.23;;;;;;;;;;5066441;28;20397;-66
2021/01/16 09:22:49;;;;;;;37.35;15.63;;;;;;;;;;5064298;28;20043;-64
2021/01/16 09:25:22;;;;;;;32.65;12.73;;;;;;;;;;5062326;28;20039;-64
2021/01/16 09:27:48;;;;;;;33.40;12.90;;;;;;;;;;5065825;28;20170;-64
2021/01/16 09:30:23;;;;;;;33.45;14.73;;;;;;;;;;5066311;28;20381;-64
2021/01/16 09:32:49;;;;;;;26.48;10.05;;;;;;;;;;5065622;28;20029;-65
2021/01/16 09:35:32;;;;;;;20.52;7.45;;;;;;;;;;5066201;28;20021;-65
2021/01/16 09:37:58;;;;;;;31.08;12.18;;;;;;;;;;5065052;28;20022;-64
2021/01/16 09:40:33;;;;;;;26.55;10.07;;;;;;;;;;5064090;28;20267;-65
2021/01/16 09:42:58;;;;;;;27.10;11.15;;;;;;;;;;5064425;28;20662;-63
2021/01/16 09:45:43;;;;;;;38.13;14.07;;;;;;;;;;5064643;28;20151;-66
2021/01/16 09:48:08;;;;;;;26.55;11.63;;;;;;;;;;5064860;28;20551;-65
2021/01/16 09:50:34;;;;;;;29.83;11.02;;;;;;;;;;5064856;28;20028;-65
2021/01/16 09:53:02;;;;;;;29.67;12.75;;;;;;;;;;5065136;28;20378;-66
2021/01/16 09:55:32;;;;;;;42.28;14.93;;;;;;;;;;5064458;28;20376;-65
2021/01/16 09:57:58;;;;;;;34.97;16.05;;;;;;;;;;5062373;28;20409;-64
2021/01/16 10:00:26;;;;;;;40.30;15.05;;;;;;;;;;5063176;28;20020;-64
2021/01/16 10:03:02;;;;;;;29.15;10.93;;;;;;;;;;5063618;28;20025;-64
2021/01/16 10:05:28;;;;;;;38.08;15.32;;;;;;;;;;5064626;28;20012;-66
2021/01/16 10:07:54;;;;;;;43.20;16.75;;;;;;;;;;5064069;28;20013;-64
2021/01/16 10:10:19;;;;;;;25.95;8.95;;;;;;;;;;5065904;28;20036;-66
2021/01/16 10:12:48;;;;;;;33.70;12.95;;;;;;;;;;5064383;28;20377;-65
2021/01/16 10:15:17;;;;;;;39.40;15.43;;;;;;;;;;5064136;28;20082;-65
2021/01/16 10:17:47;;;;;;;36.05;12.52;;;;;;;;;;5065019;28;20031;-65
2021/01/16 10:20:14;;;;;;;28.75;11.45;;;;;;;;;;5065304;28;20707;-65
2021/01/16 10:22:52;;;;;;;37.85;16.48;;;;;;;;;;5065177;28;20107;-65
2021/01/16 10:25:18;;;;;;;35.08;12.57;;;;;;;;;;5064385;28;20206;-65
2021/01/16 10:27:43;;;;;;;36.35;14.00;;;;;;;;;;5066326;28;20031;-65
2021/01/16 10:30:16;;;;;;;27.48;10.73;;;;;;;;;;5064736;28;20032;-66
2021/01/16 10:32:42;;;;;;;25.65;10.95;;;;;;;;;;5063289;28;20031;-65
2021/01/16 10:35:07;;;;;;;27.98;11.52;;;;;;;;;;5064115;28;20021;-65
2021/01/16 10:37:39;;;;;;;18.88;8.70;;;;;;;;;;5065549;28;20032;-63
2021/01/16 10:40:04;;;;;;;21.73;9.13;;;;;;;;;;5064861;28;20332;-65
2021/01/16 10:42:39;;;;;;;31.27;13.00;;;;;;;;;;5064244;28;20367;-65
2021/01/16 10:45:04;;;;;;;36.33;9.95;;;;;;;;;;5064171;28;20029;-65
2021/01/16 10:47:31;;;;;;;39.22;13.40;;;;;;;;;;5066029;28;20023;-64
2021/01/16 10:50:00;;;;;;;24.27;10.32;;;;;;;;;;5065385;28;20029;-65
2021/01/16 10:52:29;;;;;;;39.78;16.00;;;;;;;;;;5066116;28;20047;-66
2021/01/16 10:55:01;;;;;;;30.27;11.60;;;;;;;;;;5065283;28;20544;-66
2021/01/16 10:57:28;;;;;;;31.15;11.88;;;;;;;;;;5060365;28;20048;-66
2021/01/16 10:59:56;;;;;;;28.55;12.88;;;;;;;;;;5064637;28;20020;-65
2021/01/16 11:02:35;;;;;;;47.70;15.75;;;;;;;;;;5065604;28;20024;-65
2021/01/16 11:05:15;;;;;;;20.13;9.25;;;;;;;;;;5064194;28;20067;-64
2021/01/16 11:07:41;;;;;;;20.30;8.43;;;;;;;;;;5062869;28;20382;-63
2021/01/16 11:10:06;;;;;;;42.13;16.50;;;;;;;;;;5064620;28;20055;-64
2021/01/16 11:12:32;;;;;;;35.95;15.82;;;;;;;;;;5063734;28;20036;-65
2021/01/16 11:14:59;;;;;;;31.65;11.38;;;;;;;;;;5065241;28;20066;-65
2021/01/16 11:17:45;;;;;;;19.05;9.40;;;;;;;;;;5068342;28;20032;-66
2021/01/16 11:20:17;;;;;;;23.48;9.52;;;;;;;;;;5068413;28;20580;-64
2021/01/16 11:22:45;;;;;;;42.72;17.08;;;;;;;;;;5068261;28;20029;-65
2021/01/16 11:25:12;;;;;;;44.53;16.98;;;;;;;;;;5067302;28;20021;-65
2021/01/16 11:27:38;;;;;;;41.00;17.65;;;;;;;;;;5065738;28;20040;-65
2021/01/16 11:30:08;;;;;;;37.35;16.25;;;;;;;;;;5069206;28;20771;-64
2021/01/16 11:32:37;;;;;;;27.80;12.48;;;;;;;;;;5068389;28;20024;-64
2021/01/16 11:35:12;;;;;;;33.70;12.88;;;;;;;;;;5068829;28;20913;-66
2021/01/16 11:37:46;;;;;;;20.25;8.20;;;;;;;;;;5066901;28;20491;-66
2021/01/16 11:40:31;;;;;;;25.33;12.10;;;;;;;;;;5068162;28;20071;-65
2021/01/16 11:42:57;;;;;;;33.80;12.98;;;;;;;;;;5067540;28;20109;-64
2021/01/16 11:45:26;;;;;;;36.42;13.20;;;;;;;;;;5067278;28;20028;-64
2021/01/16 11:47:55;;;;;;;46.90;17.52;;;;;;;;;;5067141;28;20021;-64
2021/01/16 11:50:21;;;;;;;36.10;14.10;;;;;;;;;;5066038;28;20469;-65
2021/01/16 11:52:46;;;;;;;19.98;7.43;;;;;;;;;;5067253;28;20066;-65
2021/01/16 11:55:12;;;;;;;28.30;12.27;;;;;;;;;;5068902;28;20061;-65
2021/01/16 11:57:38;;;;;;;36.22;14.27;;;;;;;;;;5066698;28;20052;-63
2021/01/16 12:00:04;;;;;;;18.63;8.88;;;;;;;;;;5066933;28;20052;-64
2021/01/16 12:02:29;;;;;;;20.05;6.78;;;;;;;;;;5066824;28;20488;-65
2021/01/16 12:04:55;;;;;;;43.63;17.33;;;;;;;;;;5066757;28;20066;-65
2021/01/16 12:07:20;;;;;;;38.78;16.13;;;;;;;;;;5067340;28;20059;-65
2021/01/16 12:09:46;;;;;;;23.13;9.63;;;;;;;;;;5066511;28;20024;-64
2021/01/16 12:12:12;;;;;;;16.95;7.00;;;;;;;;;;5067415;28;20364;-65
2021/01/16 12:14:37;;;;;;;26.67;11.57;;;;;;;;;;5066826;28;20016;-65
2021/01/16 12:17:10;;;;;;;29.73;11.30;;;;;;;;;;5066808;28;20115;-65
2021/01/16 12:19:36;;;;;;;25.05;10.85;;;;;;;;;;5065108;28;20024;-66
2021/01/16 12:22:02;;;;;;;34.95;11.23;;;;;;;;;;5066998;28;20078;-64
2021/01/16 12:24:28;;;;;;;17.65;6.80;;;;;;;;;;5066006;28;20028;-64
2021/01/16 12:26:56;;;;;;;23.73;10.52;;;;;;;;;;5065391;28;20025;-64
2021/01/16 12:29:25;;;;;;;18.52;7.43;;;;;;;;;;5067073;28;20033;-64
2021/01/16 12:32:04;;;;;;;23.52;10.45;;;;;;;;;;5065789;28;21771;-64
2021/01/16 12:34:29;;;;;;;19.98;8.40;;;;;;;;;;5066025;28;20028;-64
2021/01/16 12:36:54;;;;;;;26.30;9.63;;;;;;;;;;5066466;28;20031;-64
2021/01/16 12:39:20;;;;;;;18.25;6.85;;;;;;;;;;5066967;28;20032;-64
2021/01/16 12:41:46;;;;;;;30.50;11.23;;;;;;;;;;5065838;28;20031;-64
2021/01/16 12:44:12;;;;;;;26.80;8.93;;;;;;;;;;5065522;28;20016;-64
2021/01/16 12:46:39;;;;;;;27.80;10.98;;;;;;;;;;5065898;28;20210;-64
2021/01/16 12:49:10;;;;;;;43.92;12.98;;;;;;;;;;5065822;28;20020;-64
2021/01/16 12:51:35;;;;;;;23.05;10.18;;;;;;;;;;5065793;28;20408;-64
2021/01/16 12:54:00;;;;;;;22.83;9.65;;;;;;;;;;5065773;28;20016;-64
2021/01/16 12:56:28;;;;;;;32.72;14.88;;;;;;;;;;5064988;28;20062;-64
2021/01/16 12:58:53;;;;;;;27.77;11.95;;;;;;;;;;5066716;28;20024;-64
2021/01/16 13:01:19;;;;;;;34.90;16.17;;;;;;;;;;5063826;28;20577;-64
2021/01/16 13:03:44;;;;;;;17.92;8.70;;;;;;;;;;5064117;28;20452;-65
2021/01/16 13:06:10;;;;;;;25.42;9.93;;;;;;;;;;5064613;28;20473;-64
2021/01/16 13:08:36;;;;;;;15.95;7.03;;;;;;;;;;5065281;28;20021;-64
2021/01/16 13:11:02;;;;;;;29.08;11.82;;;;;;;;;;5065131;28;20028;-64
2021/01/16 13:13:27;;;;;;;31.77;12.70;;;;;;;;;;5064503;28;20028;-64
2021/01/16 13:15:58;;;;;;;34.33;14.20;;;;;;;;;;5065789;28;20084;-64
2021/01/16 13:18:26;;;;;;;32.17;12.88;;;;;;;;;;5064666;28;20024;-65
2021/01/16 13:20:54;;;;;;;15.80;6.93;;;;;;;;;;5065185;28;20044;-64
2021/01/16 13:23:37;;;;;;;22.25;9.20;;;;;;;;;;5062949;28;20048;-65
2021/01/16 13:26:02;;;;;;;15.38;8.30;;;;;;;;;;5061520;28;20056;-64
2021/01/16 13:28:28;;;;;;;22.05;9.07;;;;;;;;;;5064598;28;20055;-65
2021/01/16 13:30:58;;;;;;;24.88;10.77;;;;;;;;;;5064310;28;20021;-65
2021/01/16 13:33:24;;;;;;;21.92;7.78;;;;;;;;;;5064309;28;20063;-65
2021/01/16 13:35:49;;;;;;;28.08;12.07;;;;;;;;;;5063975;28;20056;-64
2021/01/16 13:38:14;;;;;;;19.15;9.07;;;;;;;;;;5064591;28;20013;-65
2021/01/16 13:40:40;;;;;;;26.83;8.55;;;;;;;;;;5066704;28;20043;-65
2021/01/16 13:43:05;;;;;;;16.52;6.18;;;;;;;;;;5065792;28;20027;-65
2021/01/16 13:45:31;;;;;;;16.65;7.10;;;;;;;;;;5066456;28;20021;-65
2021/01/16 13:47:57;;;;;;;14.48;6.00;;;;;;;;;;5066036;28;20221;-65
2021/01/16 13:50:23;;;;;;;12.27;5.00;;;;;;;;;;5064944;28;20060;-65
2021/01/16 13:52:54;;;;;;;17.45;4.80;;;;;;;;;;5065921;28;20426;-65
2021/01/16 13:55:23;;;;;;;11.57;5.55;;;;;;;;;;5066466;28;20025;-66
2021/01/16 13:58:15;;;;;;;8.80;4.35;;;;;;;;;;5066290;28;20032;-65
2021/01/16 14:00:43;;;;;;;8.65;4.78;;;;;;;;;;5062996;28;20439;-65
2021/01/16 14:03:08;;;;;;;12.77;4.57;;;;;;;;;;5069299;28;20016;-65
2021/01/16 14:05:34;;;;;;;7.82;3.53;;;;;;;;;;5069411;28;20025;-65
2021/01/16 14:08:09;;;;;;;12.40;6.85;;;;;;;;;;5070017;28;20056;-65
2021/01/16 14:10:34;;;;;;;11.82;6.55;;;;;;;;;;5069200;28;20020;-65
2021/01/16 14:13:12;;;;;;;12.77;6.07;;;;;;;;;;5069114;28;20491;-64
2021/01/16 14:15:54;;;;;;;10.45;5.88;;;;;;;;;;5065804;28;20056;-64
2021/01/16 14:18:25;;;;;;;12.25;5.22;;;;;;;;;;5070251;28;20020;-65
2021/01/16 14:20:51;;;;;;;14.45;7.10;;;;;;;;;;5070302;28;20039;-64
2021/01/16 14:23:43;;;;;;;14.63;6.18;;;;;;;;;;5070337;28;20044;-65